Yorkton Municipal Airport
CYQV : now visible

Airfield :











YOU CAN JOIN US ON...

 
LOGIN :

Register | Disclaimer

   EN    FR    IT 

 









Legend :    VFR   Marginal VFR   IFR   Intensive IFR   Very Intensive IFR
Visi :
Ceiling :
>= 8 km
>= 3000ft
5 to 8 km
1000 to 3000 ft
1500m to 5 km
500 to 1000 ft
800 to 1500m
200 to 500 ft
< 800m
< 200 ft
Symbols :   Thunderstorms  Fog  Heavy snow  Heavy precipitations  Wind > 20 kt






- Airport Elevation : 1635 ft
- IATA code : YQV


CYQV - Yorkton Municipal

CURRENT METAR :
  • 070100Z AUTO 18007KT 9SM BKN027 OVC032 03/01 A2955 RMK SLP031

EXPIRED METARs :
  • 070010Z AUTO 15009KT 9SM FEW020 SCT027 BKN033 OVC042 03/02 A2955 RMK SLP031
  • 062328Z AUTO 15009KT 7SM -RA SCT021 OVC025 03/01 A2956 RMK SLP036
  • 062315Z AUTO 15009KT 9SM -RA OVC019 03/01 A2957 RMK SLP037
  • 062300Z AUTO 15006KT 9SM OVC019 03/00 A2957 RMK SLP039
  • 062235Z AUTO 18007KT 9SM BKN023 BKN090 03/00 A2958 RMK SLP044

TAF TAF CYQV
Valid from the 07 at 00:00 until the 07 at 06:00 UTC


062338Z 0700/0706 16010KT P6SM -RA OVC025
TEMPO 0700/0703 3SM -SHRASN BR OVC020
BECMG 0701/0703 28015G25KT
FM070300 28015G25KT P6SM BKN020
TEMPO 0703/0706 BKN025 RMK FCST BASED ON AUTO OBS. NXT FCST WILL BE ISSUED AT 071145Z



MET'MAP, your aeronautical weather chart ! - Copyright ORBIFLY December 2007 - Disclaimer

ORBIFLY MET'MAP TEAM :

Programming & Development : Alexandra Zaïnal
Concept & original design : Baudouin d'Aumeries
Assistance for programming : Marc-Olivier Méhu
Technical & hardware support : Manuel Goepfert

Contact : metmap@orbifly.com




SOURCES & CREDITS :

   NOAA       Earth
Advisory